createdAt,value
2019-04-03T00:00:41.583Z,12.23
2019-04-03T00:01:41.639Z,12.21
2019-04-03T00:02:41.694Z,12.21
2019-04-03T00:03:41.750Z,12.22
2019-04-03T00:04:41.808Z,12.21
2019-04-03T00:05:41.883Z,12.23
2019-04-03T00:06:41.919Z,12.26
2019-04-03T00:07:41.975Z,12.19
2019-04-03T00:08:42.032Z,12.13
2019-04-03T00:09:42.096Z,12.11
2019-04-03T00:10:42.155Z,12.11
2019-04-03T00:11:42.210Z,12.11
2019-04-03T00:12:42.268Z,12.00
2019-04-03T00:13:42.624Z,12.01
2019-04-03T00:14:43.131Z,11.90
2019-04-03T00:15:44.240Z,11.90
2019-04-03T00:16:43.751Z,11.87
2019-04-03T00:17:45.281Z,11.94
2019-04-03T00:18:42.649Z,11.96
2019-04-03T00:19:42.648Z,11.85
2019-04-03T00:20:42.886Z,11.85
2019-04-03T00:21:42.760Z,11.77
2019-04-03T00:22:45.758Z,11.75
2019-04-03T00:23:42.870Z,11.75
2019-04-03T00:24:42.930Z,11.74
2019-04-03T00:25:42.984Z,11.72
2019-04-03T00:26:43.038Z,11.67
2019-04-03T00:27:43.097Z,11.67
2019-04-03T00:28:43.294Z,11.57
2019-04-03T00:29:43.207Z,11.56
2019-04-03T00:30:43.348Z,11.46
2019-04-03T00:31:43.320Z,11.49
2019-04-03T00:32:43.376Z,11.51
2019-04-03T00:33:43.430Z,11.41
2019-04-03T00:34:43.489Z,11.30
2019-04-03T00:35:43.541Z,11.33
2019-04-03T00:36:43.597Z,11.35
2019-04-03T00:37:43.666Z,11.30
2019-04-03T00:38:43.708Z,11.28
2019-04-03T00:39:43.765Z,11.28
2019-04-03T00:40:43.887Z,11.31
2019-04-03T00:41:43.876Z,11.28
2019-04-03T00:42:43.979Z,11.33
2019-04-03T00:43:43.987Z,11.31
2019-04-03T00:44:44.044Z,11.33
2019-04-03T00:45:44.101Z,11.41
2019-04-03T00:46:44.154Z,11.42
2019-04-03T00:47:44.209Z,11.42
2019-04-03T00:48:44.265Z,11.46
2019-04-03T00:49:44.321Z,11.49
2019-04-03T00:50:44.376Z,11.41
2019-04-03T00:51:44.432Z,11.48
2019-04-03T00:52:44.488Z,11.46
2019-04-03T00:53:44.543Z,11.48
2019-04-03T00:54:44.600Z,11.44
2019-04-03T00:55:44.656Z,11.33
2019-04-03T00:56:44.711Z,11.44
2019-04-03T00:57:44.916Z,11.39
2019-04-03T00:58:44.823Z,11.45
2019-04-03T00:59:44.879Z,11.38
2019-04-03T01:00:44.962Z,11.41
2019-04-03T01:01:45.300Z,11.39
2019-04-03T01:02:45.045Z,11.36
2019-04-03T01:03:45.100Z,11.38
2019-04-03T01:04:45.156Z,11.30
2019-04-03T01:05:45.212Z,11.31
2019-04-03T01:06:45.268Z,11.31
2019-04-03T01:07:45.321Z,11.31
2019-04-03T01:08:45.381Z,11.28
2019-04-03T01:09:45.434Z,11.21
2019-04-03T01:10:45.490Z,11.28
2019-04-03T01:11:45.544Z,11.19
2019-04-03T01:12:45.601Z,11.17
2019-04-03T01:13:45.667Z,11.12
2019-04-03T01:14:45.715Z,11.12
2019-04-03T01:15:45.770Z,11.09
2019-04-03T01:16:45.950Z,11.03
2019-04-03T01:17:45.881Z,11.05
2019-04-03T01:18:45.940Z,11.05
2019-04-03T01:19:45.990Z,11.03
2019-04-03T01:20:46.048Z,11.08
2019-04-03T01:21:46.103Z,10.98
2019-04-03T01:22:46.172Z,10.94
2019-04-03T01:23:46.217Z,10.86
2019-04-03T01:24:46.312Z,10.87
2019-04-03T01:25:46.324Z,10.95
2019-04-03T01:26:46.381Z,10.98
2019-04-03T01:27:46.435Z,10.95
2019-04-03T01:28:46.489Z,10.86
2019-04-03T01:29:46.545Z,10.86
2019-04-03T01:30:46.673Z,10.90
2019-04-03T01:31:46.656Z,10.86
2019-04-03T01:32:47.171Z,10.86
2019-04-03T01:33:47.181Z,10.88
2019-04-03T01:34:47.727Z,10.87
2019-04-03T01:35:47.399Z,10.80
2019-04-03T01:36:48.232Z,10.86
2019-04-03T01:37:47.866Z,10.87
2019-04-03T01:38:49.250Z,10.81
2019-04-03T01:39:47.099Z,10.84
2019-04-03T01:40:47.293Z,10.83
2019-04-03T01:41:47.210Z,10.73
2019-04-03T01:42:47.287Z,10.84
2019-04-03T01:43:47.319Z,10.86
2019-04-03T01:44:47.406Z,10.84
2019-04-03T01:45:47.433Z,10.88
2019-04-03T01:46:47.792Z,10.80
2019-04-03T01:47:47.680Z,10.83
2019-04-03T01:48:47.599Z,10.73
2019-04-03T01:49:47.656Z,10.75
2019-04-03T01:50:47.708Z,10.80
2019-04-03T01:51:47.765Z,10.84
2019-04-03T01:52:47.929Z,10.84
2019-04-03T01:53:47.875Z,10.83
2019-04-03T01:54:48.043Z,10.81
2019-04-03T01:55:47.986Z,10.81
2019-04-03T01:56:48.041Z,10.80
2019-04-03T01:57:48.099Z,10.70
2019-04-03T01:58:48.152Z,10.73
2019-04-03T01:59:48.208Z,10.70
2019-04-03T02:00:48.262Z,10.78
2019-04-03T02:01:48.318Z,10.69
2019-04-03T02:02:48.375Z,10.73
2019-04-03T02:03:48.429Z,10.78
2019-04-03T02:04:48.694Z,10.69
2019-04-03T02:05:48.541Z,10.73
2019-04-03T02:06:48.634Z,10.62
2019-04-03T02:07:48.650Z,10.55
2019-04-03T02:08:48.705Z,10.52
2019-04-03T02:09:48.762Z,10.69
2019-04-03T02:10:49.230Z,10.66
2019-04-03T02:11:49.312Z,10.62
2019-04-03T02:12:50.833Z,10.65
2019-04-03T02:13:50.997Z,10.62
2019-04-03T02:14:51.019Z,10.65
2019-04-03T02:15:49.094Z,10.51
2019-04-03T02:16:49.149Z,10.47
2019-04-03T02:17:49.207Z,10.38
2019-04-03T02:18:49.259Z,10.47
2019-04-03T02:19:49.316Z,10.51
2019-04-03T02:20:49.375Z,10.47
2019-04-03T02:21:49.427Z,10.36
2019-04-03T02:22:49.482Z,10.39
2019-04-03T02:23:49.537Z,10.38
2019-04-03T02:24:49.595Z,10.35
2019-04-03T02:25:49.649Z,10.18
2019-04-03T02:26:49.705Z,10.25
2019-04-03T02:27:49.760Z,10.16
2019-04-03T02:28:49.815Z,10.11
2019-04-03T02:29:50.047Z,10.11
2019-04-03T02:30:50.007Z,10.07
2019-04-03T02:31:52.932Z,9.98
2019-04-03T02:32:50.037Z,9.96
2019-04-03T02:33:50.093Z,9.98
2019-04-03T02:34:50.148Z,9.81
2019-04-03T02:35:50.202Z,9.83
2019-04-03T02:36:50.262Z,9.77
2019-04-03T02:37:50.850Z,9.74
2019-04-03T02:38:51.534Z,9.71
2019-04-03T02:39:50.422Z,9.71
2019-04-03T02:40:50.483Z,9.77
2019-04-03T02:41:50.532Z,9.67
2019-04-03T02:42:50.587Z,9.71
2019-04-03T02:43:50.652Z,9.71
2019-04-03T02:44:51.747Z,9.75
2019-04-03T02:45:50.754Z,9.65
2019-04-03T02:46:50.966Z,9.73
2019-04-03T02:47:50.961Z,9.74
2019-04-03T02:48:50.918Z,9.68
2019-04-03T02:49:50.977Z,9.75
2019-04-03T02:50:51.026Z,9.67
2019-04-03T02:51:52.953Z,9.67
2019-04-03T02:52:51.140Z,9.65
2019-04-03T02:53:51.346Z,9.73
2019-04-03T02:54:51.371Z,9.71
2019-04-03T02:55:51.303Z,9.70
2019-04-03T02:56:51.357Z,9.75
2019-04-03T02:57:51.993Z,9.70
2019-04-03T02:58:53.937Z,9.74
2019-04-03T02:59:51.523Z,9.74
2019-04-03T03:00:51.578Z,9.67
2019-04-03T03:01:51.693Z,9.62
2019-04-03T03:02:51.771Z,9.65
2019-04-03T03:03:51.963Z,9.62
2019-04-03T03:04:54.637Z,9.56
2019-04-03T03:05:52.020Z,9.63
2019-04-03T03:06:51.904Z,9.62
2019-04-03T03:07:51.985Z,9.60
2019-04-03T03:08:52.015Z,9.60
2019-04-03T03:09:52.082Z,9.71
2019-04-03T03:10:52.885Z,9.65
2019-04-03T03:11:54.911Z,9.59
2019-04-03T03:12:52.233Z,9.67
2019-04-03T03:13:52.362Z,9.75
2019-04-03T03:14:52.596Z,9.71
2019-04-03T03:15:52.398Z,9.77
2019-04-03T03:16:52.484Z,9.81
2019-04-03T03:17:55.089Z,9.83
2019-04-03T03:18:52.564Z,9.80
2019-04-03T03:19:52.619Z,9.77
2019-04-03T03:20:52.865Z,9.81
2019-04-03T03:21:52.729Z,9.80
2019-04-03T03:22:52.963Z,9.70
2019-04-03T03:23:55.195Z,9.75
2019-04-03T03:24:53.052Z,9.78
2019-04-03T03:25:52.947Z,9.88
2019-04-03T03:26:53.002Z,9.89
2019-04-03T03:27:53.056Z,9.81
2019-04-03T03:28:53.386Z,9.91
2019-04-03T03:29:53.217Z,9.86
2019-04-03T03:30:59.557Z,9.92
2019-04-03T03:32:11.191Z,9.86
2019-04-03T03:33:10.169Z,9.86
2019-04-03T03:34:00.884Z,9.85
2019-04-03T03:35:06.570Z,9.89
2019-04-03T03:35:53.848Z,9.88
2019-04-03T03:36:58.665Z,9.83
2019-04-03T03:37:53.605Z,9.85
2019-04-03T03:38:53.664Z,9.81
2019-04-03T03:39:53.759Z,9.85
2019-04-03T03:40:53.771Z,9.81
2019-04-03T03:41:57.515Z,9.86
2019-04-03T03:42:53.880Z,9.77
2019-04-03T03:43:54.303Z,9.75
2019-04-03T03:44:54.286Z,9.78
2019-04-03T03:45:54.177Z,9.80
2019-04-03T03:46:54.101Z,9.75
2019-04-03T03:47:54.537Z,9.78
2019-04-03T03:48:54.209Z,9.85
2019-04-03T03:49:54.284Z,9.85
2019-04-03T03:50:57.264Z,9.81
2019-04-03T03:51:54.375Z,9.85
2019-04-03T03:52:54.429Z,9.85
2019-04-03T03:53:54.485Z,9.83
2019-04-03T03:54:54.683Z,9.89
2019-04-03T03:55:58.405Z,9.83
2019-04-03T03:56:54.769Z,9.88
2019-04-03T03:57:55.026Z,9.89
2019-04-03T03:58:54.766Z,9.91
2019-04-03T03:59:54.816Z,9.85
2019-04-03T04:00:58.312Z,9.71
2019-04-03T04:01:55.129Z,9.59
2019-04-03T04:02:55.311Z,9.67
2019-04-03T04:03:55.036Z,9.68
2019-04-03T04:04:55.088Z,9.71
2019-04-03T04:05:56.407Z,9.67
2019-04-03T04:06:55.199Z,9.74
2019-04-03T04:07:55.631Z,9.71
2019-04-03T04:08:55.313Z,9.75
2019-04-03T04:09:55.366Z,9.65
2019-04-03T04:10:58.841Z,9.74
2019-04-03T04:11:55.562Z,9.70
2019-04-03T04:12:55.529Z,9.62
2019-04-03T04:13:55.804Z,9.74
2019-04-03T04:14:57.173Z,9.74
2019-04-03T04:15:55.694Z,9.67
2019-04-03T04:16:55.750Z,9.85
2019-04-03T04:17:55.923Z,9.73
2019-04-03T04:18:57.456Z,9.68
2019-04-03T04:19:55.917Z,9.65
2019-04-03T04:20:56.003Z,9.60
2019-04-03T04:21:56.227Z,9.68
2019-04-03T04:22:56.218Z,9.63
2019-04-03T04:23:57.272Z,9.67
2019-04-03T04:24:58.589Z,9.68
2019-04-03T04:25:56.244Z,9.63
2019-04-03T04:26:56.565Z,9.62
2019-04-03T04:27:56.353Z,9.65
2019-04-03T04:28:56.409Z,9.62
2019-04-03T04:29:56.464Z,9.62
2019-04-03T04:30:56.523Z,9.65
2019-04-03T04:31:56.879Z,9.60
2019-04-03T04:32:56.675Z,9.70
2019-04-03T04:33:56.687Z,9.67
2019-04-03T04:34:56.874Z,9.74
2019-04-03T04:35:56.923Z,9.68
2019-04-03T04:36:56.848Z,9.75
2019-04-03T04:37:56.904Z,9.70
2019-04-03T04:38:57.927Z,9.78
2019-04-03T04:39:57.948Z,9.74
2019-04-03T04:40:57.415Z,9.78
2019-04-03T04:41:57.129Z,9.89
2019-04-03T04:42:57.177Z,9.86
2019-04-03T04:43:57.232Z,9.88
2019-04-03T04:44:57.288Z,9.89
2019-04-03T04:45:57.343Z,9.92
2019-04-03T04:46:57.401Z,9.92
2019-04-03T04:47:57.457Z,10.01
2019-04-03T04:48:57.509Z,9.96
2019-04-03T04:49:57.582Z,9.80
2019-04-03T04:50:57.619Z,9.71
2019-04-03T04:51:57.676Z,9.74
2019-04-03T04:52:58.766Z,9.62
2019-04-03T04:53:59.451Z,9.67
2019-04-03T04:54:57.838Z,9.67
2019-04-03T04:55:57.896Z,9.62
2019-04-03T04:56:57.949Z,9.62
2019-04-03T04:57:58.005Z,9.62
2019-04-03T04:58:58.203Z,9.65
2019-04-03T04:59:58.113Z,9.62
2019-04-03T05:00:58.181Z,9.62
2019-04-03T05:01:58.474Z,9.63
2019-04-03T05:03:00.943Z,9.60
2019-04-03T05:03:58.388Z,9.70
2019-04-03T05:04:58.674Z,9.60
2019-04-03T05:05:58.697Z,9.48
2019-04-03T05:07:00.138Z,9.50
2019-04-03T05:07:59.803Z,9.49
2019-04-03T05:08:58.614Z,9.37
2019-04-03T05:09:58.663Z,9.37
2019-04-03T05:10:58.717Z,9.38
2019-04-03T05:11:58.772Z,9.37
2019-04-03T05:12:58.831Z,9.40
2019-04-03T05:13:58.881Z,9.44
2019-04-03T05:14:58.938Z,9.40
2019-04-03T05:15:59.073Z,9.37
2019-04-03T05:16:59.059Z,9.32
2019-04-03T05:17:59.102Z,9.42
2019-04-03T05:19:08.692Z,9.35
2019-04-03T05:19:59.293Z,9.35
2019-04-03T05:20:59.266Z,9.27
2019-04-03T05:21:59.320Z,9.24
2019-04-03T05:22:59.374Z,9.32
2019-04-03T05:24:10.731Z,9.38
2019-04-03T05:25:00.251Z,9.31
2019-04-03T05:26:01.903Z,9.35
2019-04-03T05:27:02.450Z,9.31
2019-04-03T05:28:00.364Z,9.26
2019-04-03T05:28:59.705Z,9.24
2019-04-03T05:29:59.757Z,9.32
2019-04-03T05:30:59.813Z,9.23
2019-04-03T05:31:59.866Z,9.27
2019-04-03T05:32:59.921Z,9.23
2019-04-03T05:33:59.977Z,9.27
2019-04-03T05:35:00.029Z,9.17
2019-04-03T05:36:00.113Z,9.30
2019-04-03T05:37:00.140Z,9.30
2019-04-03T05:38:00.194Z,9.26
2019-04-03T05:39:02.691Z,9.31
2019-04-03T05:40:00.302Z,9.31
2019-04-03T05:41:00.542Z,9.27
2019-04-03T05:42:00.416Z,9.20
2019-04-03T05:43:00.666Z,9.20
2019-04-03T05:44:02.351Z,9.23
2019-04-03T05:45:03.469Z,9.30
2019-04-03T05:46:00.852Z,9.31
2019-04-03T05:47:00.731Z,9.32
2019-04-03T05:48:00.739Z,9.22
2019-04-03T05:49:00.795Z,9.27
2019-04-03T05:50:00.848Z,9.31
2019-04-03T05:51:00.903Z,9.24
2019-04-03T05:52:03.535Z,9.32
2019-04-03T05:53:01.319Z,9.31
2019-04-03T05:54:01.074Z,9.38
2019-04-03T05:55:01.122Z,9.40
2019-04-03T05:56:01.176Z,9.30
2019-04-03T05:57:01.229Z,9.30
2019-04-03T05:58:01.286Z,9.32
2019-04-03T05:59:02.922Z,9.27
2019-04-03T06:00:02.515Z,9.32
2019-04-03T06:01:05.697Z,9.32
2019-04-03T06:02:13.506Z,9.30
2019-04-03T06:03:01.560Z,9.17
2019-04-03T06:04:01.619Z,9.20
2019-04-03T06:05:01.982Z,9.19
2019-04-03T06:06:01.792Z,9.12
2019-04-03T06:07:01.875Z,9.08
2019-04-03T06:08:02.675Z,9.10
2019-04-03T06:09:01.888Z,9.20
2019-04-03T06:10:01.939Z,9.15
2019-04-03T06:11:03.684Z,9.15
2019-04-03T06:12:02.047Z,9.04
2019-04-03T06:13:05.104Z,9.01
2019-04-03T06:14:02.157Z,9.00
2019-04-03T06:15:02.210Z,8.96
2019-04-03T06:16:02.267Z,9.01
2019-04-03T06:17:02.534Z,8.91
2019-04-03T06:18:02.378Z,8.85
2019-04-03T06:19:02.428Z,8.85
2019-04-03T06:20:02.482Z,8.85
2019-04-03T06:21:02.537Z,8.93
2019-04-03T06:22:02.684Z,8.85
2019-04-03T06:23:02.646Z,8.82
2019-04-03T06:24:02.699Z,8.73
2019-04-03T06:25:02.767Z,8.75
2019-04-03T06:26:03.114Z,8.71
2019-04-03T06:27:02.863Z,8.70
2019-04-03T06:28:02.916Z,8.73
2019-04-03T06:29:02.998Z,8.65
2019-04-03T06:30:03.024Z,8.61
2019-04-03T06:31:03.091Z,8.58
2019-04-03T06:32:05.783Z,8.60
2019-04-03T06:33:03.187Z,8.57
2019-04-03T06:34:03.407Z,8.57
2019-04-03T06:35:03.297Z,8.52
2019-04-03T06:36:03.351Z,8.57
2019-04-03T06:37:03.647Z,8.55
2019-04-03T06:38:03.498Z,8.65
2019-04-03T06:39:03.514Z,8.60
2019-04-03T06:40:03.885Z,8.55
2019-04-03T06:41:03.658Z,8.47
2019-04-03T06:42:03.677Z,8.45
2019-04-03T06:43:03.732Z,8.47
2019-04-03T06:44:04.045Z,8.50
2019-04-03T06:45:03.838Z,8.40
2019-04-03T06:46:03.893Z,8.54
2019-04-03T06:47:03.979Z,8.47
2019-04-03T06:48:05.143Z,8.37
2019-04-03T06:49:04.057Z,8.29
2019-04-03T06:50:04.390Z,8.31
2019-04-03T06:51:04.203Z,8.22
2019-04-03T06:52:04.465Z,8.28
2019-04-03T06:53:04.273Z,8.27
2019-04-03T06:54:06.952Z,8.13
2019-04-03T06:55:04.392Z,8.14
2019-04-03T06:56:04.435Z,8.10
2019-04-03T06:57:04.495Z,8.12
2019-04-03T06:58:04.546Z,8.20
2019-04-03T06:59:04.599Z,8.20
2019-04-03T07:00:04.653Z,8.07
2019-04-03T07:01:04.716Z,8.17
2019-04-03T07:02:04.772Z,8.10
2019-04-03T07:03:04.814Z,8.17
2019-04-03T07:04:06.475Z,8.09
2019-04-03T07:05:04.923Z,8.06
2019-04-03T07:06:04.978Z,8.09
2019-04-03T07:07:05.029Z,8.04
2019-04-03T07:08:05.999Z,8.03
2019-04-03T07:09:05.454Z,8.03
2019-04-03T07:10:08.330Z,8.03
2019-04-03T07:11:05.246Z,8.10
2019-04-03T07:12:05.303Z,8.10
2019-04-03T07:13:05.357Z,8.14
2019-04-03T07:14:05.412Z,8.14
2019-04-03T07:15:05.464Z,8.20
2019-04-03T07:16:05.519Z,8.13
2019-04-03T07:17:06.066Z,8.28
2019-04-03T07:18:06.568Z,8.36
2019-04-03T07:19:07.582Z,8.34
2019-04-03T07:20:13.478Z,8.29
2019-04-03T07:21:05.805Z,8.29
2019-04-03T07:22:05.845Z,8.43
2019-04-03T07:23:06.166Z,8.47
2019-04-03T07:24:05.951Z,8.37
2019-04-03T07:25:06.005Z,8.47
2019-04-03T07:26:06.336Z,8.54
2019-04-03T07:27:06.950Z,8.50
2019-04-03T07:28:08.589Z,8.57
2019-04-03T07:29:06.224Z,8.52
2019-04-03T07:30:06.280Z,8.61
2019-04-03T07:31:06.340Z,8.58
2019-04-03T07:32:06.389Z,8.57
2019-04-03T07:33:06.449Z,8.60
2019-04-03T07:34:06.772Z,8.63
2019-04-03T07:35:09.797Z,8.50
2019-04-03T07:36:06.898Z,8.54
2019-04-03T07:37:06.680Z,8.57
2019-04-03T07:38:07.002Z,8.60
2019-04-03T07:39:09.714Z,8.60
2019-04-03T07:40:06.885Z,8.67
2019-04-03T07:41:06.882Z,8.63
2019-04-03T07:42:06.938Z,8.65
2019-04-03T07:43:07.180Z,8.70
2019-04-03T07:44:07.044Z,8.76
2019-04-03T07:45:07.102Z,8.88
2019-04-03T07:46:07.157Z,8.93
2019-04-03T07:47:07.210Z,8.94
2019-04-03T07:48:07.265Z,8.80
2019-04-03T07:49:09.052Z,8.91
2019-04-03T07:50:10.387Z,8.85
2019-04-03T07:51:07.436Z,8.91
2019-04-03T07:52:07.744Z,8.94
2019-04-03T07:53:07.822Z,8.93
2019-04-03T07:54:07.595Z,8.79
2019-04-03T07:55:07.855Z,8.93
2019-04-03T07:56:07.717Z,8.89
2019-04-03T07:57:09.794Z,8.91
2019-04-03T07:58:07.817Z,8.93
2019-04-03T07:59:08.302Z,9.00
2019-04-03T08:00:07.933Z,8.96
2019-04-03T08:01:10.579Z,9.10
2019-04-03T08:02:08.074Z,8.94
2019-04-03T08:03:08.200Z,8.98
2019-04-03T08:04:09.132Z,9.08
2019-04-03T08:05:09.310Z,9.06
2019-04-03T08:06:08.260Z,8.94
2019-04-03T08:07:08.308Z,9.01
2019-04-03T08:08:08.494Z,9.10
2019-04-03T08:09:09.911Z,9.01
2019-04-03T08:10:08.475Z,8.94
2019-04-03T08:11:08.550Z,8.97
2019-04-03T08:12:08.652Z,8.93
2019-04-03T08:13:08.662Z,8.88
2019-04-03T08:14:09.545Z,8.88
2019-04-03T08:15:08.750Z,8.86
2019-04-03T08:16:08.827Z,8.88
2019-04-03T08:17:09.309Z,8.97
2019-04-03T08:18:09.597Z,8.97
2019-04-03T08:20:09.292Z,9.17
2019-04-03T08:21:09.432Z,9.22
2019-04-03T08:22:09.396Z,9.27
2019-04-03T08:23:09.194Z,9.31
2019-04-03T08:24:09.584Z,9.45
2019-04-03T08:25:11.754Z,9.52
2019-04-03T08:26:11.495Z,9.63
2019-04-03T08:27:09.417Z,9.68
2019-04-03T08:28:09.687Z,9.78
2019-04-03T08:29:09.723Z,9.65
2019-04-03T08:30:09.581Z,9.71
2019-04-03T08:31:11.509Z,9.71
2019-04-03T08:32:09.726Z,9.56
2019-04-03T08:33:15.937Z,9.65
2019-04-03T08:34:16.735Z,9.63
2019-04-03T08:35:21.154Z,9.59
2019-04-03T08:36:22.287Z,9.52
2019-04-03T08:37:10.819Z,9.38
2019-04-03T08:38:12.394Z,9.31
2019-04-03T08:39:10.083Z,9.35
2019-04-03T08:40:10.141Z,9.42
2019-04-03T08:41:10.196Z,9.35
2019-04-03T08:42:10.380Z,9.40
2019-04-03T08:43:10.306Z,9.40
2019-04-03T08:44:10.372Z,9.49
2019-04-03T08:45:10.427Z,9.48
2019-04-03T08:46:11.005Z,9.37
2019-04-03T08:47:13.699Z,9.34
2019-04-03T08:48:10.658Z,9.24
2019-04-03T08:49:10.643Z,9.32
2019-04-03T08:50:10.713Z,9.35
2019-04-03T08:51:10.753Z,9.34
2019-04-03T08:52:13.613Z,9.35
2019-04-03T08:53:11.022Z,9.32
2019-04-03T08:54:11.368Z,9.40
2019-04-03T08:55:13.375Z,9.40
2019-04-03T08:56:11.036Z,9.38
2019-04-03T08:57:11.402Z,9.38
2019-04-03T08:58:11.153Z,9.30
2019-04-03T08:59:12.858Z,9.34
2019-04-03T09:00:11.256Z,9.32
2019-04-03T09:01:11.658Z,9.42
2019-04-03T09:02:12.921Z,9.49
2019-04-03T09:03:12.305Z,9.48
2019-04-03T09:04:11.483Z,9.55
2019-04-03T09:05:13.753Z,9.50
2019-04-03T09:06:11.587Z,9.59
2019-04-03T09:07:11.644Z,9.49
2019-04-03T09:08:11.701Z,9.53
2019-04-03T09:09:11.753Z,9.68
2019-04-03T09:10:11.895Z,9.71
2019-04-03T09:11:11.863Z,9.75
2019-04-03T09:12:11.920Z,9.85
2019-04-03T09:13:17.745Z,9.80
2019-04-03T09:14:12.033Z,9.86
2019-04-03T09:15:12.347Z,9.78
2019-04-03T09:16:12.144Z,9.96
2019-04-03T09:17:12.200Z,9.95
2019-04-03T09:18:12.256Z,9.86
2019-04-03T09:19:12.563Z,9.86
2019-04-03T09:20:13.452Z,9.95
2019-04-03T09:21:12.848Z,9.96
2019-04-03T09:22:12.481Z,9.83
2019-04-03T09:23:12.623Z,9.88
2019-04-03T09:24:12.594Z,9.95
2019-04-03T09:25:13.738Z,9.86
2019-04-03T09:26:12.703Z,9.95
2019-04-03T09:27:12.820Z,9.95
2019-04-03T09:28:12.816Z,9.80
2019-04-03T09:29:13.709Z,9.86
2019-04-03T09:30:15.781Z,9.83
2019-04-03T09:31:12.984Z,9.99
2019-04-03T09:32:13.044Z,9.93
2019-04-03T09:33:13.425Z,9.99
2019-04-03T09:34:13.153Z,9.78
2019-04-03T09:35:13.209Z,9.85
2019-04-03T09:36:13.587Z,9.95
2019-04-03T09:37:13.320Z,10.17
2019-04-03T09:38:13.377Z,10.17
2019-04-03T09:39:14.570Z,10.17
2019-04-03T09:40:16.630Z,10.26
2019-04-03T09:41:13.546Z,10.29
2019-04-03T09:42:13.603Z,10.35
2019-04-03T09:43:13.702Z,10.36
2019-04-03T09:44:14.353Z,10.38
2019-04-03T09:45:13.926Z,10.46
2019-04-03T09:46:13.827Z,10.55
2019-04-03T09:47:13.937Z,10.70
2019-04-03T09:48:14.197Z,10.83
2019-04-03T09:49:14.194Z,10.76
2019-04-03T09:50:14.810Z,10.91
2019-04-03T09:51:14.246Z,10.72
2019-04-03T09:52:14.167Z,10.84
2019-04-03T09:53:14.361Z,10.73
2019-04-03T09:54:14.284Z,10.84
2019-04-03T09:55:14.339Z,10.87
2019-04-03T09:56:14.401Z,10.87
2019-04-03T09:57:14.467Z,10.70
2019-04-03T09:58:14.859Z,10.63
2019-04-03T09:59:16.218Z,10.32
2019-04-03T10:00:14.778Z,10.49
2019-04-03T10:01:18.016Z,10.51
2019-04-03T10:02:14.739Z,10.72
2019-04-03T10:03:14.898Z,10.88
2019-04-03T10:04:14.851Z,10.81
2019-04-03T10:05:15.122Z,10.93
2019-04-03T10:06:15.072Z,10.88
2019-04-03T10:07:15.207Z,10.98
2019-04-03T10:08:15.081Z,10.90
2019-04-03T10:09:15.136Z,10.90
2019-04-03T10:10:16.571Z,10.98
2019-04-03T10:11:15.875Z,10.81
2019-04-03T10:12:15.307Z,10.83
2019-04-03T10:13:15.643Z,10.75
2019-04-03T10:14:15.426Z,10.81
2019-04-03T10:15:18.108Z,10.80
2019-04-03T10:16:16.820Z,10.81
2019-04-03T10:17:15.594Z,10.90
2019-04-03T10:18:15.651Z,10.81
2019-04-03T10:19:16.049Z,10.75
2019-04-03T10:20:17.255Z,10.73
2019-04-03T10:21:15.821Z,10.72
2019-04-03T10:22:16.154Z,10.54
2019-04-03T10:23:15.934Z,10.51
2019-04-03T10:24:15.991Z,10.54
2019-04-03T10:25:16.201Z,10.73
2019-04-03T10:26:16.530Z,10.72
2019-04-03T10:27:16.162Z,10.81
2019-04-03T10:28:16.546Z,10.83
2019-04-03T10:29:18.453Z,10.91
2019-04-03T10:30:16.617Z,10.81
2019-04-03T10:31:16.389Z,10.94
2019-04-03T10:32:16.445Z,11.03
2019-04-03T10:33:16.511Z,11.28
2019-04-03T10:34:16.562Z,11.42
2019-04-03T10:35:16.615Z,11.39
2019-04-03T10:36:18.167Z,11.49
2019-04-03T10:37:16.732Z,11.72
2019-04-03T10:38:18.298Z,11.85
2019-04-03T10:39:19.480Z,12.00
2019-04-03T10:40:16.902Z,12.01
2019-04-03T10:41:17.206Z,12.15
2019-04-03T10:42:17.017Z,12.13
2019-04-03T10:43:17.074Z,12.03
2019-04-03T10:44:17.145Z,11.79
2019-04-03T10:45:17.223Z,11.78
2019-04-03T10:46:18.977Z,11.63
2019-04-03T10:47:20.837Z,11.79
2019-04-03T10:48:17.789Z,11.94
2019-04-03T10:49:17.419Z,12.19
2019-04-03T10:50:17.479Z,12.40
2019-04-03T10:51:17.535Z,12.37
2019-04-03T10:52:17.594Z,12.49
2019-04-03T10:53:19.633Z,12.30
2019-04-03T10:54:17.710Z,12.31
2019-04-03T10:55:18.203Z,12.22
2019-04-03T10:56:17.826Z,12.03
2019-04-03T10:57:17.886Z,11.78
2019-04-03T10:58:17.943Z,11.85
2019-04-03T10:59:18.690Z,11.90
2019-04-03T11:00:18.060Z,11.63
2019-04-03T11:01:18.118Z,11.57
2019-04-03T11:02:18.511Z,11.63
2019-04-03T11:03:18.493Z,11.54
2019-04-03T11:04:18.938Z,11.28
2019-04-03T11:05:18.375Z,11.28
2019-04-03T11:06:18.463Z,11.16
2019-04-03T11:07:18.468Z,11.17
2019-04-03T11:08:18.530Z,11.27
2019-04-03T11:09:18.842Z,11.51
2019-04-03T11:10:18.962Z,11.64
2019-04-03T11:11:18.706Z,11.72
2019-04-03T11:12:19.044Z,12.03
2019-04-03T11:13:19.154Z,12.23
2019-04-03T11:14:18.879Z,12.16
2019-04-03T11:15:19.106Z,12.30
2019-04-03T11:16:18.990Z,12.01
2019-04-03T11:17:19.049Z,12.00
2019-04-03T11:18:21.091Z,12.26
2019-04-03T11:19:20.179Z,12.19
2019-04-03T11:20:19.493Z,12.16
2019-04-03T11:21:19.282Z,12.05
2019-04-03T11:22:19.341Z,11.88
2019-04-03T11:23:21.729Z,11.82
2019-04-03T11:24:19.479Z,11.74
2019-04-03T11:25:19.518Z,11.62
2019-04-03T11:26:23.465Z,11.57
2019-04-03T11:27:19.750Z,11.46
2019-04-03T11:28:19.695Z,11.41
2019-04-03T11:29:19.764Z,11.26
2019-04-03T11:30:23.794Z,11.28
2019-04-03T11:31:27.142Z,11.49
2019-04-03T11:32:22.605Z,11.42
2019-04-03T11:33:20.268Z,11.42
2019-04-03T11:34:20.078Z,11.46
2019-04-03T11:35:21.759Z,11.30
2019-04-03T11:36:20.151Z,11.28
2019-04-03T11:37:20.207Z,11.13
2019-04-03T11:38:27.511Z,11.23
2019-04-03T11:39:20.323Z,11.19
2019-04-03T11:40:20.515Z,11.11
2019-04-03T11:41:22.991Z,10.98
2019-04-03T11:42:25.193Z,11.06
2019-04-03T11:43:20.902Z,11.16
2019-04-03T11:44:20.610Z,11.13
2019-04-03T11:45:20.669Z,11.31
2019-04-03T11:46:20.761Z,11.28
2019-04-03T11:47:20.786Z,11.33
2019-04-03T11:48:20.840Z,11.31
2019-04-03T11:49:21.380Z,11.30
2019-04-03T11:50:23.456Z,11.30
2019-04-03T11:51:21.081Z,11.30
2019-04-03T11:52:21.068Z,11.16
2019-04-03T11:53:21.125Z,11.03
2019-04-03T11:54:21.187Z,10.87
2019-04-03T11:55:21.239Z,10.99
2019-04-03T11:56:21.295Z,11.13
2019-04-03T11:57:21.352Z,11.11
2019-04-03T11:58:22.447Z,11.09
2019-04-03T11:59:23.707Z,11.02
2019-04-03T12:00:21.525Z,11.13
2019-04-03T12:01:21.858Z,11.20
2019-04-03T12:02:21.823Z,11.13
2019-04-03T12:03:21.987Z,11.13
2019-04-03T12:04:21.750Z,11.26
2019-04-03T12:05:21.810Z,11.26
2019-04-03T12:06:22.004Z,11.28
2019-04-03T12:07:24.449Z,11.31
2019-04-03T12:08:21.976Z,11.42
2019-04-03T12:09:22.034Z,11.44
2019-04-03T12:10:24.875Z,11.49
2019-04-03T12:11:22.147Z,11.42
2019-04-03T12:12:22.203Z,11.41
2019-04-03T12:13:22.258Z,11.39
2019-04-03T12:14:22.644Z,11.38
2019-04-03T12:15:22.456Z,11.41
2019-04-03T12:16:24.767Z,11.46
2019-04-03T12:17:22.502Z,11.49
2019-04-03T12:18:22.542Z,11.54
2019-04-03T12:19:22.624Z,11.42
2019-04-03T12:20:22.656Z,11.28
2019-04-03T12:21:22.711Z,11.28
2019-04-03T12:22:23.135Z,11.26
2019-04-03T12:23:25.608Z,11.09
2019-04-03T12:24:22.967Z,11.08
2019-04-03T12:25:23.051Z,11.19
2019-04-03T12:26:23.170Z,11.19
2019-04-03T12:27:23.125Z,11.12
2019-04-03T12:28:23.107Z,11.12
2019-04-03T12:29:23.216Z,11.12
2019-04-03T12:30:23.220Z,11.28
2019-04-03T12:31:23.732Z,11.53
2019-04-03T12:32:35.797Z,11.57
2019-04-03T12:33:23.392Z,11.64
2019-04-03T12:34:23.898Z,11.85
2019-04-03T12:35:23.503Z,12.04
2019-04-03T12:36:26.589Z,12.15
2019-04-03T12:37:25.050Z,12.03
2019-04-03T12:38:23.883Z,12.01
2019-04-03T12:39:26.169Z,11.94
2019-04-03T12:40:24.273Z,12.18
2019-04-03T12:41:23.846Z,12.12
2019-04-03T12:42:23.901Z,11.93
2019-04-03T12:43:24.042Z,11.63
2019-04-03T12:44:24.277Z,11.54
2019-04-03T12:45:25.641Z,11.48
2019-04-03T12:46:24.161Z,11.46
2019-04-03T12:47:26.950Z,11.35
2019-04-03T12:48:24.247Z,11.33
2019-04-03T12:49:24.324Z,11.28
2019-04-03T12:50:26.829Z,11.49
2019-04-03T12:51:24.415Z,11.62
2019-04-03T12:52:24.476Z,11.70
2019-04-03T12:53:24.586Z,11.90
2019-04-03T12:54:24.586Z,11.97
2019-04-03T12:55:26.082Z,12.00
2019-04-03T12:56:25.429Z,11.85
2019-04-03T12:57:24.758Z,11.75
2019-04-03T12:58:24.813Z,11.78
2019-04-03T12:59:24.942Z,11.75
2019-04-03T13:00:24.928Z,11.72
2019-04-03T13:01:24.984Z,11.79
2019-04-03T13:02:25.050Z,11.79
2019-04-03T13:03:26.154Z,11.75
2019-04-03T13:04:26.407Z,11.56
2019-04-03T13:05:25.343Z,11.64
2019-04-03T13:06:25.684Z,11.69
2019-04-03T13:07:25.327Z,11.70
2019-04-03T13:08:25.384Z,11.60